Estación Meteorológica Peña el Pijo (Robertgarden) [ 09/22/18 22:41:41 CEST ]

Fecha Hora Presion(HPa) Temp (°C) Humedad % Rocio (°C) Viento ( m/s) Direccion Lluvia 1Hora(mm) Lluvia 24H(mm) LLuvia Total(mm)
2018-Jan-17 01:01:51 1014.300 3.9 81 1.0       3.10 62.16
2018-Jan-17 02:04:10 1013.600 4.2 81 1.2       3.10 62.16
2018-Jan-17 03:01:48 1013.300 3.3 79 0.0       3.10 62.16
2018-Jan-17 04:01:45 1012.900 1.3 78 -2.2       3.10 62.16
2018-Jan-17 05:01:42 1012.700 0.1 80 -2.9       3.10 62.16
2018-Jan-17 06:01:43 1012.300 2.1 79 -1.2       3.10 62.16
2018-Jan-17 07:01:45 1012.100 1.3 77 -2.3       3.10 62.16
2018-Jan-17 08:01:59 1012.900 0.3 80 -2.7       3.10 62.16
2018-Jan-17 09:01:45 1012.800 2.1 80 -1.0       3.10 62.16
2018-Jan-17 10:01:43 1013.200 6.4 78 2.8       3.10 62.16
2018-Jan-17 11:01:52 1013.600 12.8 64 6.4       1.03 62.16
2018-Jan-17 12:01:50 1013.600 16.6 45 4.5         62.16
2018-Jan-17 13:01:54 1012.700 17.4 36 2.1         62.16
2018-Jan-17 14:01:41 1011.900 18.9 27 -0.7 2.0 SE     62.16
2018-Jan-17 15:01:34 1011.500 18.3 27 -1.2         62.16
2018-Jan-17 16:01:37 1011.700 17.4 30 -0.3 2.1 S     62.16
2018-Jan-17 17:01:44 1012.200 14.9 32 -1.7         62.16
2018-Jan-17 18:01:32 1012.400 11.6 40 -1.6         62.16
2018-Jan-17 19:01:49 1012.800 7.9 50 -1.9         62.16
2018-Jan-17 20:01:36 1013.400 4.5 58 -3.1         62.16
2018-Jan-17 21:01:48 1013.800 2.7 63 -3.6         62.16
2018-Jan-17 22:01:41 1014.000 1.3 68 -4.0         62.16
2018-Jan-17 23:01:45 1013.900 0.8 72 -3.7         62.16

Temperatura Máxima:18°    Temperatura Mínima:
Presión Máxima:1014.300 Hpa    Presión Mínima:1011.500 Hpa


Volver